Time;durP1;ratioP1;P1;durP2;ratioP2;P2;SDS_P1;SDS_P2;PMS_P1;PMS_P2;Temp;Humidity;BMP_temperature;BMP_pressure;BME280_temperature;BME280_humidity;BME280_pressure;Samples;Min_cycle;Max_cycle;Signal;HPM_P1;HPM_P2
2023/09/05 00:00:12;;;;;;;7.13;4.13;;;;;;;;;;6198097;23;20076;-87
2023/09/05 00:03:02;;;;;;;7.47;4.28;;;;;;;;;;6227722;22;20075;-88
2023/09/05 00:05:33;;;;;;;8.43;4.43;;;;;;;;;;6259615;22;20076;-88
2023/09/05 00:14:12;;;;;;;6.80;4.28;;;;;;;;;;6252981;22;20085;-88
2023/09/05 00:16:54;;;;;;;8.38;4.35;;;;;;;;;;6254777;23;20326;-88
2023/09/05 00:19:24;;;;;;;6.38;4.00;;;;;;;;;;6231679;23;20024;-89
2023/09/05 00:22:06;;;;;;;5.45;4.30;;;;;;;;;;6240401;22;20024;-89
2023/09/05 00:24:38;;;;;;;6.47;4.57;;;;;;;;;;6244101;22;20137;-89
2023/09/05 00:27:13;;;;;;;7.00;5.70;;;;;;;;;;6244074;22;20023;-89
2023/09/05 00:29:43;;;;;;;7.60;5.53;;;;;;;;;;6271059;22;20020;-88
2023/09/05 00:32:13;;;;;;;6.65;4.90;;;;;;;;;;6241644;23;20386;-89
2023/09/05 00:34:47;;;;;;;6.63;5.07;;;;;;;;;;6235675;23;20028;-87
2023/09/05 00:37:22;;;;;;;8.75;5.47;;;;;;;;;;6238154;22;20018;-88
2023/09/05 00:39:54;;;;;;;10.73;5.70;;;;;;;;;;6235348;23;20078;-88
2023/09/05 00:42:26;;;;;;;6.32;4.65;;;;;;;;;;6233442;23;20321;-85
2023/09/05 00:44:55;;;;;;;13.25;5.05;;;;;;;;;;6234184;23;20044;-86
2023/09/05 00:47:34;;;;;;;8.27;5.13;;;;;;;;;;6235794;23;20024;-86
2023/09/05 00:50:10;;;;;;;8.40;5.47;;;;;;;;;;6260908;23;20031;-86
2023/09/05 00:52:39;;;;;;;7.28;5.00;;;;;;;;;;6259877;23;20099;-85
2023/09/05 00:55:20;;;;;;;8.57;4.80;;;;;;;;;;6235921;23;20024;-86
2023/09/05 00:57:52;;;;;;;9.13;4.95;;;;;;;;;;6231466;23;20051;-86
2023/09/05 01:00:22;;;;;;;8.88;4.90;;;;;;;;;;6233320;23;20020;-86
2023/09/05 01:02:54;;;;;;;7.20;5.38;;;;;;;;;;6234163;23;20054;-86
2023/09/05 01:05:35;;;;;;;8.63;5.07;;;;;;;;;;6263350;23;20024;-86
2023/09/05 01:08:21;;;;;;;7.68;4.60;;;;;;;;;;6239276;23;20028;-85
2023/09/05 01:10:56;;;;;;;19.05;5.15;;;;;;;;;;6239312;23;20082;-86
2023/09/05 01:13:38;;;;;;;6.63;4.65;;;;;;;;;;6255021;22;20116;-86
2023/09/05 01:16:10;;;;;;;10.65;4.88;;;;;;;;;;6293903;22;20063;-86
2023/09/05 01:18:40;;;;;;;7.50;4.65;;;;;;;;;;6295780;22;20020;-86
2023/09/05 01:21:35;;;;;;;8.90;3.97;;;;;;;;;;6287523;22;20019;-85
2023/09/05 01:24:17;;;;;;;7.22;3.97;;;;;;;;;;6292963;22;20014;-86
2023/09/05 01:27:01;;;;;;;;;;;;;;;;;;;;;
2023/09/05 01:29:50;;;;;;;6.75;4.65;;;;;;;;;;6292869;22;20039;-89
2023/09/05 01:32:43;;;;;;;5.47;4.50;;;;;;;;;;6291158;22;20055;-89
2023/09/05 01:35:27;;;;;;;5.68;4.00;;;;;;;;;;6293315;22;20089;-89
2023/09/05 01:38:00;;;;;;;8.48;4.35;;;;;;;;;;6292802;22;20034;-89
2023/09/05 01:40:43;;;;;;;5.90;3.88;;;;;;;;;;6294096;22;20028;-89
2023/09/05 01:43:13;;;;;;;6.90;4.45;;;;;;;;;;6292612;22;20026;-88
2023/09/05 01:45:54;;;;;;;7.50;4.97;;;;;;;;;;6289111;22;20020;-88
2023/09/05 01:48:25;;;;;;;11.60;5.68;;;;;;;;;;6293656;22;20102;-88
2023/09/05 01:50:57;;;;;;;8.18;4.85;;;;;;;;;;6292746;22;20019;-88
2023/09/05 01:53:44;;;;;;;6.40;4.72;;;;;;;;;;6292314;22;20023;-87
2023/09/05 01:56:24;;;;;;;7.00;5.57;;;;;;;;;;6293361;22;20024;-88
2023/09/05 01:58:59;;;;;;;10.00;5.32;;;;;;;;;;6291320;22;20035;-88
2023/09/05 02:01:43;;;;;;;8.00;4.82;;;;;;;;;;6291955;22;20019;-88
2023/09/05 02:04:27;;;;;;;6.88;4.38;;;;;;;;;;6290975;22;20035;-87
2023/09/05 02:07:01;;;;;;;9.30;5.28;;;;;;;;;;6294251;22;20019;-88
2023/09/05 02:09:43;;;;;;;6.13;3.63;;;;;;;;;;6276434;22;20055;-88
2023/09/05 02:12:17;;;;;;;4.93;3.17;;;;;;;;;;6292395;22;20023;-87
2023/09/05 02:14:54;;;;;;;6.10;4.45;;;;;;;;;;6290114;22;20053;-86
2023/09/05 02:17:24;;;;;;;7.75;4.53;;;;;;;;;;6290298;22;20020;-86
2023/09/05 02:20:06;;;;;;;7.70;5.10;;;;;;;;;;6282046;22;20020;-87
2023/09/05 02:22:43;;;;;;;6.63;4.07;;;;;;;;;;6287333;22;20019;-87
2023/09/05 02:25:16;;;;;;;9.85;4.30;;;;;;;;;;6289081;22;20020;-87
2023/09/05 02:27:46;;;;;;;12.75;4.47;;;;;;;;;;6287432;22;20023;-86
2023/09/05 02:30:16;;;;;;;7.75;5.28;;;;;;;;;;6288127;22;20011;-86
2023/09/05 02:32:55;;;;;;;7.80;5.05;;;;;;;;;;6289968;22;20508;-86
2023/09/05 02:35:24;;;;;;;7.35;4.68;;;;;;;;;;6289124;22;20020;-87
2023/09/05 02:38:05;;;;;;;7.18;4.70;;;;;;;;;;6282974;22;20023;-86
2023/09/05 02:40:35;;;;;;;7.20;4.50;;;;;;;;;;6291037;22;20034;-87
2023/09/05 02:43:07;;;;;;;7.13;4.88;;;;;;;;;;6284344;22;20102;-87
2023/09/05 02:45:40;;;;;;;10.57;6.03;;;;;;;;;;6284421;22;20031;-87
2023/09/05 02:48:13;;;;;;;10.25;6.07;;;;;;;;;;6284729;22;20313;-86
2023/09/05 02:50:58;;;;;;;9.63;6.00;;;;;;;;;;6288608;22;20028;-86
2023/09/05 02:53:33;;;;;;;12.25;6.75;;;;;;;;;;6284845;22;20043;-87
2023/09/05 02:56:07;;;;;;;12.43;6.25;;;;;;;;;;6283432;22;20122;-85
2023/09/05 02:58:43;;;;;;;12.25;6.63;;;;;;;;;;6284271;22;20173;-86
2023/09/05 03:01:25;;;;;;;8.80;6.30;;;;;;;;;;6283778;22;20059;-86
2023/09/05 03:04:15;;;;;;;10.98;6.68;;;;;;;;;;6283034;22;20034;-85
2023/09/05 03:07:06;;;;;;;8.45;5.97;;;;;;;;;;6284841;22;20150;-85
2023/09/05 03:09:38;;;;;;;8.77;6.07;;;;;;;;;;6284171;22;20028;-85
2023/09/05 03:12:15;;;;;;;8.18;6.05;;;;;;;;;;6283149;22;20106;-85
2023/09/05 03:14:54;;;;;;;11.27;6.57;;;;;;;;;;6289177;22;20415;-86
2023/09/05 03:17:35;;;;;;;12.45;6.68;;;;;;;;;;6281826;22;20035;-85
2023/09/05 03:20:09;;;;;;;10.80;6.43;;;;;;;;;;6282918;22;20317;-85
2023/09/05 03:22:54;;;;;;;11.02;5.85;;;;;;;;;;6287740;22;20028;-86
2023/09/05 03:25:25;;;;;;;10.95;6.55;;;;;;;;;;6293207;22;20034;-86
2023/09/05 03:28:08;;;;;;;9.25;6.45;;;;;;;;;;6293854;22;20034;-86
2023/09/05 03:30:50;;;;;;;8.85;6.35;;;;;;;;;;6288849;22;20023;-89
2023/09/05 03:33:29;;;;;;;9.60;6.25;;;;;;;;;;6287340;22;20036;-88
2023/09/05 03:35:58;;;;;;;8.10;5.93;;;;;;;;;;6286093;22;20024;-88
2023/09/05 03:38:40;;;;;;;11.75;6.20;;;;;;;;;;6285154;22;20098;-87
2023/09/05 03:41:48;;;;;;;18.45;6.57;;;;;;;;;;6227852;23;20039;-88
2023/09/05 04:14:56;;;;;;;13.60;8.00;;;;;;;;;;6245496;22;20015;-86
2023/09/05 04:17:26;;;;;;;15.30;7.97;;;;;;;;;;6289220;22;20079;-86
2023/09/05 04:19:56;;;;;;;15.00;7.78;;;;;;;;;;6261560;22;20030;-87
2023/09/05 04:22:32;;;;;;;10.57;6.50;;;;;;;;;;6261719;22;20042;-87
2023/09/05 04:25:14;;;;;;;12.85;7.75;;;;;;;;;;6262671;22;20020;-87
2023/09/05 04:27:55;;;;;;;14.50;8.35;;;;;;;;;;6286232;22;20024;-87
2023/09/05 04:30:30;;;;;;;9.05;6.53;;;;;;;;;;6260487;22;20091;-86
2023/09/05 04:33:06;;;;;;;12.18;6.57;;;;;;;;;;6258685;22;20034;-86
2023/09/05 04:35:50;;;;;;;9.57;6.05;;;;;;;;;;6259365;22;20024;-87
2023/09/05 04:38:24;;;;;;;14.57;7.35;;;;;;;;;;6262952;22;20023;-87
2023/09/05 04:41:02;;;;;;;8.57;6.68;;;;;;;;;;6255465;22;20034;-87
2023/09/05 04:43:31;;;;;;;13.25;7.80;;;;;;;;;;6260332;22;20027;-88
2023/09/05 04:46:05;;;;;;;16.88;7.95;;;;;;;;;;6277303;22;20071;-86
2023/09/05 04:48:38;;;;;;;10.65;5.97;;;;;;;;;;6249127;22;20133;-85
2023/09/05 04:51:08;;;;;;;17.13;6.55;;;;;;;;;;6250747;22;20024;-86
2023/09/05 04:53:40;;;;;;;12.73;7.72;;;;;;;;;;6248887;22;20076;-86
2023/09/05 04:56:23;;;;;;;8.85;6.32;;;;;;;;;;6268183;22;20036;-87
2023/09/05 04:58:55;;;;;;;9.95;6.63;;;;;;;;;;6250315;22;20069;-87
2023/09/05 05:05:03;;;;;;;8.70;6.55;;;;;;;;;;6274821;22;20050;-86
2023/09/05 06:55:47;;;;;;;12.00;2.77;;;;;;;;;;6301953;22;20019;-90
2023/09/05 15:12:30;;;;;;;0.10;0.10;;;;;;;;;;6277206;22;20003;-87
2023/09/05 15:44:14;;;;;;;0.00;0.00;;;;;;;;;;6265695;22;20994;-89
2023/09/05 15:47:03;;;;;;;0.00;0.00;;;;;;;;;;6257700;22;20030;-89
2023/09/05 15:49:51;;;;;;;0.00;0.00;;;;;;;;;;6256687;22;20024;-90
2023/09/05 15:55:53;;;;;;;0.40;0.35;;;;;;;;;;6286083;22;20424;-90
2023/09/05 15:59:06;;;;;;;0.00;0.00;;;;;;;;;;6274412;22;20112;-90
2023/09/05 16:02:43;;;;;;;0.00;0.00;;;;;;;;;;5097034;28;20776;-92
2023/09/05 16:05:18;;;;;;;0.00;0.00;;;;;;;;;;5095798;28;20093;-90
2023/09/05 16:08:21;;;;;;;0.00;0.00;;;;;;;;;;5098112;28;20075;-89
2023/09/05 16:11:12;;;;;;;0.00;0.00;;;;;;;;;;5093426;28;20248;-90
2023/09/05 16:37:14;;;;;;;0.00;0.00;;;;;;;;;;5449752;22;20064;-87
2023/09/05 16:39:58;;;;;;;0.00;0.00;;;;;;;;;;5050189;28;20045;-87
2023/09/05 16:42:40;;;;;;;0.00;0.00;;;;;;;;;;5062790;28;20271;-87
2023/09/05 16:45:15;;;;;;;0.00;0.00;;;;;;;;;;5067215;28;20060;-87
2023/09/05 16:47:49;;;;;;;0.00;0.00;;;;;;;;;;5068095;28;20068;-86
2023/09/05 16:50:31;;;;;;;0.00;0.00;;;;;;;;;;5060056;28;20044;-86
2023/09/05 16:53:22;;;;;;;0.00;0.00;;;;;;;;;;5052693;28;20079;-87
2023/09/05 16:56:06;;;;;;;0.00;0.00;;;;;;;;;;5065950;28;20039;-87
2023/09/05 16:58:59;;;;;;;0.00;0.00;;;;;;;;;;5073798;28;20053;-87
2023/09/05 17:01:41;;;;;;;0.00;0.00;;;;;;;;;;5068155;28;20109;-86
2023/09/05 17:04:25;;;;;;;0.00;0.00;;;;;;;;;;5067579;28;20172;-87
2023/09/05 17:07:09;;;;;;;0.00;0.00;;;;;;;;;;5065273;28;20076;-87
2023/09/05 17:10:00;;;;;;;;;;;;;;;;;;;;;
2023/09/05 17:12:59;;;;;;;0.00;0.00;;;;;;;;;;5056354;28;20151;-87
2023/09/05 17:15:40;;;;;;;0.00;0.00;;;;;;;;;;5058214;28;20053;-85
2023/09/05 17:18:25;;;;;;;0.00;0.00;;;;;;;;;;5050491;28;20091;-87
2023/09/05 17:21:18;;;;;;;;;;;;;;;;;;;;;
2023/09/05 17:24:05;;;;;;;0.00;0.00;;;;;;;;;;5060002;28;20045;-87
2023/09/05 17:26:46;;;;;;;0.00;0.00;;;;;;;;;;5044496;28;20056;-87
2023/09/05 17:29:48;;;;;;;0.00;0.00;;;;;;;;;;5047157;28;20111;-87
2023/09/05 17:32:36;;;;;;;0.00;0.00;;;;;;;;;;5042395;28;20052;-87
2023/09/05 17:35:20;;;;;;;0.00;0.00;;;;;;;;;;5045450;28;20041;-87
2023/09/05 17:38:02;;;;;;;0.00;0.00;;;;;;;;;;5046249;28;20091;-86
2023/09/05 17:40:47;;;;;;;0.00;0.00;;;;;;;;;;5039526;28;20388;-87
2023/09/05 17:43:39;;;;;;;0.00;0.00;;;;;;;;;;5043864;28;20084;-87
2023/09/05 17:46:51;;;;;;;0.10;0.10;;;;;;;;;;5047898;28;20060;-86
2023/09/05 17:49:57;;;;;;;0.00;0.00;;;;;;;;;;5026306;28;20047;-87
2023/09/05 17:52:42;;;;;;;0.00;0.00;;;;;;;;;;5061713;28;20045;-87
2023/09/05 17:55:41;;;;;;;0.00;0.00;;;;;;;;;;5062147;28;20361;-86
2023/09/05 17:58:24;;;;;;;0.00;0.00;;;;;;;;;;5062686;28;20055;-87
2023/09/05 18:01:13;;;;;;;0.00;0.00;;;;;;;;;;5063355;28;20221;-87
2023/09/05 18:03:55;;;;;;;0.00;0.00;;;;;;;;;;5061260;28;20106;-86
2023/09/05 18:06:27;;;;;;;0.00;0.00;;;;;;;;;;5060316;28;20068;-87
2023/09/05 18:08:56;;;;;;;0.00;0.00;;;;;;;;;;5062453;28;20049;-86
2023/09/05 18:11:31;;;;;;;0.00;0.00;;;;;;;;;;5061201;28;20103;-86
2023/09/05 18:14:23;;;;;;;0.00;0.00;;;;;;;;;;5058777;28;20057;-86
2023/09/05 18:16:57;;;;;;;0.00;0.00;;;;;;;;;;5055473;28;20160;-86
2023/09/05 18:19:41;;;;;;;0.00;0.00;;;;;;;;;;5058260;28;20055;-86
2023/09/05 18:22:23;;;;;;;0.00;0.00;;;;;;;;;;5053985;28;20049;-87
2023/09/05 18:25:08;;;;;;;0.00;0.00;;;;;;;;;;5053283;28;20051;-87
2023/09/05 18:27:56;;;;;;;0.00;0.00;;;;;;;;;;5055456;28;20045;-86
2023/09/05 18:30:41;;;;;;;0.00;0.00;;;;;;;;;;5054624;28;20052;-85
2023/09/05 18:33:23;;;;;;;0.00;0.00;;;;;;;;;;5055613;28;20107;-86
2023/09/05 18:35:56;;;;;;;0.00;0.00;;;;;;;;;;5060940;28;20273;-87
2023/09/05 18:38:40;;;;;;;0.00;0.00;;;;;;;;;;5053864;28;20049;-86
2023/09/05 18:44:28;;;;;;;0.00;0.00;;;;;;;;;;5049111;28;20053;-87
2023/09/05 18:47:06;;;;;;;0.00;0.00;;;;;;;;;;5054571;28;20045;-87
2023/09/05 18:49:40;;;;;;;0.00;0.00;;;;;;;;;;5057417;28;20048;-87
2023/09/05 18:52:20;;;;;;;0.00;0.00;;;;;;;;;;5054251;28;20455;-86
2023/09/05 18:55:05;;;;;;;0.00;0.00;;;;;;;;;;5060207;28;20061;-86
2023/09/05 18:57:47;;;;;;;0.00;0.00;;;;;;;;;;5060349;28;20060;-87
2023/09/05 19:00:36;;;;;;;0.00;0.00;;;;;;;;;;5065647;28;20029;-87
2023/09/05 19:03:59;;;;;;;0.00;0.00;;;;;;;;;;5065368;28;20061;-86
2023/09/05 19:07:05;;;;;;;0.10;0.10;;;;;;;;;;5065657;28;20060;-89
2023/09/05 19:09:39;;;;;;;0.10;0.10;;;;;;;;;;5059838;28;20388;-89
2023/09/05 19:12:17;;;;;;;0.00;0.00;;;;;;;;;;5057436;28;20204;-90
2023/09/05 19:15:09;;;;;;;0.10;0.10;;;;;;;;;;5060758;28;20267;-91
2023/09/05 19:21:09;;;;;;;0.00;0.00;;;;;;;;;;5065233;28;20051;-89
2023/09/05 19:23:54;;;;;;;0.10;0.10;;;;;;;;;;5057657;28;20428;-89
2023/09/05 19:26:31;;;;;;;0.00;0.00;;;;;;;;;;5056298;28;20075;-88
2023/09/05 19:29:12;;;;;;;0.00;0.00;;;;;;;;;;5057159;28;20118;-89
2023/09/05 19:31:54;;;;;;;0.00;0.00;;;;;;;;;;5054986;28;20067;-89
2023/09/05 19:34:35;;;;;;;0.00;0.00;;;;;;;;;;5053074;28;20063;-89
2023/09/05 19:37:39;;;;;;;0.03;0.03;;;;;;;;;;5058999;28;20117;-89
2023/09/05 19:46:56;;;;;;;0.10;0.10;;;;;;;;;;5063489;28;20062;-87
2023/09/05 19:49:46;;;;;;;0.00;0.00;;;;;;;;;;5060346;28;20067;-87
2023/09/05 19:52:31;;;;;;;0.10;0.10;;;;;;;;;;5062541;28;20105;-88
2023/09/05 19:55:18;;;;;;;0.00;0.00;;;;;;;;;;5058567;28;20053;-88
2023/09/05 19:58:01;;;;;;;0.00;0.00;;;;;;;;;;5059270;28;20225;-88
2023/09/05 20:00:51;;;;;;;0.00;0.00;;;;;;;;;;5057437;28;20036;-88
2023/09/05 20:03:26;;;;;;;0.00;0.00;;;;;;;;;;5057101;28;20055;-87
2023/09/05 20:05:57;;;;;;;0.10;0.10;;;;;;;;;;5056564;28;20056;-87
2023/09/05 20:08:39;;;;;;;0.10;0.10;;;;;;;;;;5051453;28;20048;-88
2023/09/05 20:11:11;;;;;;;0.00;0.00;;;;;;;;;;5056530;28;20151;-87
2023/09/05 20:13:59;;;;;;;0.00;0.00;;;;;;;;;;5056021;28;20340;-87
2023/09/05 20:17:04;;;;;;;0.00;0.00;;;;;;;;;;5076092;28;20048;-88
2023/09/05 20:37:51;;;;;;;0.00;0.00;;;;;;;;;;5036582;28;20229;-87
2023/09/05 20:40:23;;;;;;;0.00;0.00;;;;;;;;;;5026612;28;20042;-87
2023/09/05 20:43:01;;;;;;;0.10;0.10;;;;;;;;;;5042426;28;20108;-88
2023/09/05 20:46:16;;;;;;;0.00;0.00;;;;;;;;;;5046210;28;20049;-87
2023/09/05 20:49:01;;;;;;;0.10;0.10;;;;;;;;;;5026306;28;20088;-87
2023/09/05 20:51:45;;;;;;;0.10;0.10;;;;;;;;;;5030554;28;20041;-88
2023/09/05 20:54:15;;;;;;;0.00;0.00;;;;;;;;;;5030134;28;20136;-88
2023/09/05 20:56:54;;;;;;;0.00;0.00;;;;;;;;;;5031053;28;20045;-87
2023/09/05 20:59:34;;;;;;;0.10;0.10;;;;;;;;;;5031762;28;20073;-88
2023/09/05 21:02:04;;;;;;;0.00;0.00;;;;;;;;;;5029131;28;20053;-87
2023/09/05 21:04:47;;;;;;;0.10;0.10;;;;;;;;;;5031609;28;20055;-87
2023/09/05 21:07:22;;;;;;;0.00;0.00;;;;;;;;;;5032079;28;20069;-86
2023/09/05 21:09:55;;;;;;;0.00;0.00;;;;;;;;;;5027549;28;20049;-86
2023/09/05 21:12:30;;;;;;;0.00;0.00;;;;;;;;;;5049119;28;20107;-87
2023/09/05 21:15:25;;;;;;;;;;;;;;;;;;;;;
2023/09/05 21:18:15;;;;;;;0.00;0.00;;;;;;;;;;5048302;28;20065;-88
2023/09/05 21:20:47;;;;;;;0.10;0.10;;;;;;;;;;5049041;28;20112;-88
2023/09/05 21:23:19;;;;;;;0.10;0.10;;;;;;;;;;5031406;28;20045;-88
2023/09/05 21:25:50;;;;;;;0.00;0.00;;;;;;;;;;5028174;28;20060;-88
2023/09/05 21:28:24;;;;;;;0.00;0.00;;;;;;;;;;5030002;28;20069;-86
2023/09/05 21:31:01;;;;;;;0.10;0.10;;;;;;;;;;5029471;28;20149;-88
2023/09/05 21:33:46;;;;;;;0.00;0.00;;;;;;;;;;5030012;28;20535;-87
2023/09/05 21:36:15;;;;;;;0.00;0.00;;;;;;;;;;5023583;28;20066;-87
2023/09/05 21:38:50;;;;;;;0.05;0.05;;;;;;;;;;5026039;28;20060;-87
2023/09/05 21:41:22;;;;;;;0.05;0.05;;;;;;;;;;5025017;28;20113;-87
2023/09/05 21:43:54;;;;;;;0.10;0.10;;;;;;;;;;5024772;28;20046;-86
2023/09/05 21:46:25;;;;;;;0.10;0.10;;;;;;;;;;5023262;28;20053;-86
2023/09/05 21:48:54;;;;;;;0.00;0.00;;;;;;;;;;5024121;28;20478;-87
2023/09/05 21:51:26;;;;;;;0.00;0.00;;;;;;;;;;5023951;28;20049;-87
2023/09/05 21:53:58;;;;;;;0.10;0.10;;;;;;;;;;5024251;28;20049;-87
2023/09/05 21:56:26;;;;;;;0.10;0.10;;;;;;;;;;5022412;28;20169;-87
2023/09/05 21:58:56;;;;;;;0.10;0.10;;;;;;;;;;5022413;28;20089;-87
2023/09/05 22:01:27;;;;;;;2.50;1.27;;;;;;;;;;5024436;28;20069;-87
2023/09/05 22:04:03;;;;;;;1.67;1.40;;;;;;;;;;5023188;28;20089;-87
2023/09/05 22:06:35;;;;;;;3.90;1.67;;;;;;;;;;5025106;28;20419;-86
2023/09/05 22:09:05;;;;;;;3.55;1.70;;;;;;;;;;5026105;28;20118;-87
2023/09/05 22:11:38;;;;;;;2.85;1.60;;;;;;;;;;5022212;28;20415;-87
2023/09/05 22:14:09;;;;;;;4.00;2.13;;;;;;;;;;5022261;28;20065;-87
2023/09/05 22:16:44;;;;;;;2.33;1.30;;;;;;;;;;5021653;28;20050;-87
2023/09/05 22:19:23;;;;;;;3.72;1.80;;;;;;;;;;5021900;28;20433;-87
2023/09/05 22:22:01;;;;;;;2.38;1.63;;;;;;;;;;5026599;28;20057;-86
2023/09/05 22:25:10;;;;;;;6.60;2.00;;;;;;;;;;5020315;28;20064;-87
2023/09/05 22:27:46;;;;;;;3.75;2.03;;;;;;;;;;5022280;28;20437;-87
2023/09/05 22:30:15;;;;;;;4.93;2.00;;;;;;;;;;5022367;28;20121;-87
2023/09/05 22:32:46;;;;;;;2.58;1.58;;;;;;;;;;5024198;28;20489;-86
2023/09/05 22:35:28;;;;;;;2.83;1.55;;;;;;;;;;5022966;28;20057;-87
2023/09/05 22:37:57;;;;;;;7.35;2.03;;;;;;;;;;5025535;28;20057;-87
2023/09/05 22:40:29;;;;;;;5.38;1.90;;;;;;;;;;5022325;28;20049;-87
2023/09/05 22:43:05;;;;;;;2.63;1.67;;;;;;;;;;5022810;28;20049;-87
2023/09/05 22:45:38;;;;;;;2.92;1.60;;;;;;;;;;5023845;28;20271;-87
2023/09/05 22:48:19;;;;;;;4.85;1.60;;;;;;;;;;5025020;28;20119;-87
2023/09/05 22:50:53;;;;;;;5.20;1.60;;;;;;;;;;5022073;28;20649;-87
2023/09/05 22:53:21;;;;;;;2.72;1.25;;;;;;;;;;5021405;28;20124;-87
2023/09/05 22:55:51;;;;;;;2.50;1.52;;;;;;;;;;5021726;28;20128;-86
2023/09/05 22:58:24;;;;;;;1.98;1.50;;;;;;;;;;5022934;28;20175;-87
2023/09/05 23:01:01;;;;;;;4.00;1.60;;;;;;;;;;5023991;28;20041;-86
2023/09/05 23:03:33;;;;;;;2.55;1.40;;;;;;;;;;5022084;28;20076;-87
2023/09/05 23:06:04;;;;;;;8.07;1.92;;;;;;;;;;5023156;28;20054;-87
2023/09/05 23:08:35;;;;;;;2.70;1.73;;;;;;;;;;5022808;28;20050;-87
2023/09/05 23:11:17;;;;;;;4.47;2.00;;;;;;;;;;5024252;28;20045;-86
2023/09/05 23:13:57;;;;;;;;;;;;;;;;;;5025571;28;20050;-87
2023/09/05 23:16:29;;;;;;;3.05;1.85;;;;;;;;;;5028679;28;19944;-87
2023/09/05 23:19:05;;;;;;;2.35;1.52;;;;;;;;;;5029310;28;20060;-87
2023/09/05 23:21:45;;;;;;;3.67;1.98;;;;;;;;;;5027434;28;20077;-87
2023/09/05 23:24:23;;;;;;;3.95;1.67;;;;;;;;;;5026565;28;20073;-88
2023/09/05 23:27:06;;;;;;;5.18;1.83;;;;;;;;;;5027379;28;20113;-87
2023/09/05 23:29:42;;;;;;;2.90;1.83;;;;;;;;;;5029962;28;20060;-87
2023/09/05 23:32:16;;;;;;;2.63;1.80;;;;;;;;;;5026801;28;20037;-88
2023/09/05 23:34:46;;;;;;;5.90;1.95;;;;;;;;;;5029003;28;20033;-86
2023/09/05 23:37:36;;;;;;;9.77;2.20;;;;;;;;;;5030918;28;20065;-86
2023/09/05 23:40:10;;;;;;;5.07;2.13;;;;;;;;;;5026781;28;20105;-87
2023/09/05 23:42:42;;;;;;;3.28;2.03;;;;;;;;;;5029555;28;20483;-87
2023/09/05 23:45:16;;;;;;;2.83;2.00;;;;;;;;;;5029264;28;20049;-86
2023/09/05 23:47:51;;;;;;;3.95;2.15;;;;;;;;;;5027739;28;20084;-87
2023/09/05 23:50:27;;;;;;;6.57;2.67;;;;;;;;;;5027454;28;20105;-87
2023/09/05 23:53:01;;;;;;;3.30;2.15;;;;;;;;;;5026526;28;20061;-87
2023/09/05 23:55:29;;;;;;;3.38;2.10;;;;;;;;;;5026610;28;20053;-87
2023/09/05 23:58:01;;;;;;;4.55;2.60;;;;;;;;;;5028182;28;20054;-87
